sensor_id;sensor_type;location;lat;lon;timestamp;P1;durP1;ratioP1;P2;durP2;ratioP2
82242;SDS011;71844;51.528;4.442;2024-02-26T00:01:58;3.00;;;1.70;;
82242;SDS011;71844;51.528;4.442;2024-02-26T00:04:25;4.03;;;1.20;;
82242;SDS011;71844;51.528;4.442;2024-02-26T00:06:52;3.65;;;1.38;;
82242;SDS011;71844;51.528;4.442;2024-02-26T00:09:21;4.57;;;1.50;;
82242;SDS011;71844;51.528;4.442;2024-02-26T00:11:48;5.47;;;1.27;;
82242;SDS011;71844;51.528;4.442;2024-02-26T00:14:15;3.75;;;1.10;;
82242;SDS011;71844;51.528;4.442;2024-02-26T00:16:41;3.35;;;1.50;;
82242;SDS011;71844;51.528;4.442;2024-02-26T00:19:08;2.22;;;1.02;;
82242;SDS011;71844;51.528;4.442;2024-02-26T00:21:39;3.28;;;1.20;;
82242;SDS011;71844;51.528;4.442;2024-02-26T00:24:09;4.10;;;1.55;;
82242;SDS011;71844;51.528;4.442;2024-02-26T00:26:36;2.55;;;0.98;;
82242;SDS011;71844;51.528;4.442;2024-02-26T00:29:03;2.92;;;1.17;;
82242;SDS011;71844;51.528;4.442;2024-02-26T00:31:30;3.60;;;1.25;;
82242;SDS011;71844;51.528;4.442;2024-02-26T00:33:57;5.68;;;1.52;;
82242;SDS011;71844;51.528;4.442;2024-02-26T00:36:25;2.75;;;1.20;;
82242;SDS011;71844;51.528;4.442;2024-02-26T00:41:21;2.20;;;1.08;;
82242;SDS011;71844;51.528;4.442;2024-02-26T00:43:48;4.07;;;1.25;;
82242;SDS011;71844;51.528;4.442;2024-02-26T00:46:15;4.03;;;1.25;;
82242;SDS011;71844;51.528;4.442;2024-02-26T00:48:42;2.33;;;1.08;;
82242;SDS011;71844;51.528;4.442;2024-02-26T00:51:10;2.60;;;1.20;;
82242;SDS011;71844;51.528;4.442;2024-02-26T00:53:37;3.47;;;1.40;;
82242;SDS011;71844;51.528;4.442;2024-02-26T00:56:03;2.67;;;1.23;;
82242;SDS011;71844;51.528;4.442;2024-02-26T00:58:30;4.07;;;1.23;;
82242;SDS011;71844;51.528;4.442;2024-02-26T01:00:58;2.88;;;1.10;;
82242;SDS011;71844;51.528;4.442;2024-02-26T01:06:00;2.83;;;1.00;;
82242;SDS011;71844;51.528;4.442;2024-02-26T01:08:28;2.97;;;1.08;;
82242;SDS011;71844;51.528;4.442;2024-02-26T01:10:55;2.60;;;1.40;;
82242;SDS011;71844;51.528;4.442;2024-02-26T01:13:22;2.00;;;0.90;;
82242;SDS011;71844;51.528;4.442;2024-02-26T01:15:49;4.53;;;1.92;;
82242;SDS011;71844;51.528;4.442;2024-02-26T01:18:16;3.72;;;1.33;;
82242;SDS011;71844;51.528;4.442;2024-02-26T01:20:43;3.90;;;1.63;;
82242;SDS011;71844;51.528;4.442;2024-02-26T01:23:10;3.85;;;1.40;;
82242;SDS011;71844;51.528;4.442;2024-02-26T01:25:37;6.15;;;1.67;;
82242;SDS011;71844;51.528;4.442;2024-02-26T01:28:03;4.80;;;1.40;;
82242;SDS011;71844;51.528;4.442;2024-02-26T01:30:31;4.40;;;1.33;;
82242;SDS011;71844;51.528;4.442;2024-02-26T01:32:58;4.85;;;2.25;;
82242;SDS011;71844;51.528;4.442;2024-02-26T01:35:25;3.22;;;1.60;;
82242;SDS011;71844;51.528;4.442;2024-02-26T01:37:52;3.05;;;1.35;;
82242;SDS011;71844;51.528;4.442;2024-02-26T01:40:19;3.67;;;1.42;;
82242;SDS011;71844;51.528;4.442;2024-02-26T01:42:46;4.47;;;2.03;;
82242;SDS011;71844;51.528;4.442;2024-02-26T01:45:15;4.43;;;1.60;;
82242;SDS011;71844;51.528;4.442;2024-02-26T01:47:49;3.63;;;1.45;;
82242;SDS011;71844;51.528;4.442;2024-02-26T01:50:18;5.25;;;1.50;;
82242;SDS011;71844;51.528;4.442;2024-02-26T01:52:46;5.00;;;1.65;;
82242;SDS011;71844;51.528;4.442;2024-02-26T01:55:15;4.22;;;1.30;;
82242;SDS011;71844;51.528;4.442;2024-02-26T01:57:45;3.65;;;1.65;;
82242;SDS011;71844;51.528;4.442;2024-02-26T02:02:48;2.67;;;1.33;;
82242;SDS011;71844;51.528;4.442;2024-02-26T02:05:16;4.55;;;1.88;;
82242;SDS011;71844;51.528;4.442;2024-02-26T02:07:44;3.80;;;1.27;;
82242;SDS011;71844;51.528;4.442;2024-02-26T02:10:13;2.60;;;1.20;;
82242;SDS011;71844;51.528;4.442;2024-02-26T02:12:40;2.75;;;1.13;;
82242;SDS011;71844;51.528;4.442;2024-02-26T02:15:07;2.83;;;1.20;;
82242;SDS011;71844;51.528;4.442;2024-02-26T02:17:34;2.80;;;1.23;;
82242;SDS011;71844;51.528;4.442;2024-02-26T02:20:01;4.30;;;1.33;;
82242;SDS011;71844;51.528;4.442;2024-02-26T02:22:30;2.45;;;1.60;;
82242;SDS011;71844;51.528;4.442;2024-02-26T02:24:58;3.03;;;1.10;;
82242;SDS011;71844;51.528;4.442;2024-02-26T02:27:27;2.80;;;1.23;;
82242;SDS011;71844;51.528;4.442;2024-02-26T02:29:54;4.30;;;1.58;;
82242;SDS011;71844;51.528;4.442;2024-02-26T02:32:22;1.83;;;0.77;;
82242;SDS011;71844;51.528;4.442;2024-02-26T02:34:50;3.40;;;1.40;;
82242;SDS011;71844;51.528;4.442;2024-02-26T02:37:17;2.58;;;1.20;;
82242;SDS011;71844;51.528;4.442;2024-02-26T02:39:44;2.95;;;0.93;;
82242;SDS011;71844;51.528;4.442;2024-02-26T02:42:11;2.92;;;1.10;;
82242;SDS011;71844;51.528;4.442;2024-02-26T02:44:39;4.57;;;1.02;;
82242;SDS011;71844;51.528;4.442;2024-02-26T02:47:05;2.15;;;1.20;;
82242;SDS011;71844;51.528;4.442;2024-02-26T02:49:32;3.00;;;1.10;;
82242;SDS011;71844;51.528;4.442;2024-02-26T02:52:00;2.67;;;1.00;;
82242;SDS011;71844;51.528;4.442;2024-02-26T02:54:27;2.00;;;1.00;;
82242;SDS011;71844;51.528;4.442;2024-02-26T02:56:54;3.10;;;1.23;;
82242;SDS011;71844;51.528;4.442;2024-02-26T02:59:21;3.08;;;1.25;;
82242;SDS011;71844;51.528;4.442;2024-02-26T03:01:48;2.53;;;1.20;;
82242;SDS011;71844;51.528;4.442;2024-02-26T03:04:15;3.83;;;1.88;;
82242;SDS011;71844;51.528;4.442;2024-02-26T03:06:42;2.55;;;1.33;;
82242;SDS011;71844;51.528;4.442;2024-02-26T03:09:08;3.35;;;1.48;;
82242;SDS011;71844;51.528;4.442;2024-02-26T03:11:35;3.15;;;2.13;;
82242;SDS011;71844;51.528;4.442;2024-02-26T03:14:02;2.88;;;1.30;;
82242;SDS011;71844;51.528;4.442;2024-02-26T03:16:30;3.60;;;1.95;;
82242;SDS011;71844;51.528;4.442;2024-02-26T03:18:57;3.45;;;1.90;;
82242;SDS011;71844;51.528;4.442;2024-02-26T03:21:25;4.15;;;1.90;;
82242;SDS011;71844;51.528;4.442;2024-02-26T03:23:52;3.22;;;1.50;;
82242;SDS011;71844;51.528;4.442;2024-02-26T03:26:19;4.43;;;1.95;;
82242;SDS011;71844;51.528;4.442;2024-02-26T03:28:46;3.58;;;1.73;;
82242;SDS011;71844;51.528;4.442;2024-02-26T03:31:13;4.05;;;2.40;;
82242;SDS011;71844;51.528;4.442;2024-02-26T03:33:40;3.17;;;1.67;;
82242;SDS011;71844;51.528;4.442;2024-02-26T03:36:07;3.90;;;2.10;;
82242;SDS011;71844;51.528;4.442;2024-02-26T03:38:37;5.32;;;2.47;;
82242;SDS011;71844;51.528;4.442;2024-02-26T03:41:04;3.00;;;1.50;;
82242;SDS011;71844;51.528;4.442;2024-02-26T03:43:31;3.45;;;1.58;;
82242;SDS011;71844;51.528;4.442;2024-02-26T03:45:58;5.68;;;1.92;;
82242;SDS011;71844;51.528;4.442;2024-02-26T03:48:25;4.05;;;2.20;;
82242;SDS011;71844;51.528;4.442;2024-02-26T03:50:52;4.43;;;2.60;;
82242;SDS011;71844;51.528;4.442;2024-02-26T03:53:19;3.95;;;1.73;;
82242;SDS011;71844;51.528;4.442;2024-02-26T03:55:46;4.72;;;2.28;;
82242;SDS011;71844;51.528;4.442;2024-02-26T03:58:13;3.60;;;1.95;;
82242;SDS011;71844;51.528;4.442;2024-02-26T04:00:40;4.68;;;1.90;;
82242;SDS011;71844;51.528;4.442;2024-02-26T04:03:07;4.70;;;1.85;;
82242;SDS011;71844;51.528;4.442;2024-02-26T04:05:34;3.20;;;1.85;;
82242;SDS011;71844;51.528;4.442;2024-02-26T04:08:00;5.35;;;2.17;;
82242;SDS011;71844;51.528;4.442;2024-02-26T04:10:27;3.78;;;2.00;;
82242;SDS011;71844;51.528;4.442;2024-02-26T04:12:54;3.80;;;2.05;;
82242;SDS011;71844;51.528;4.442;2024-02-26T04:15:21;3.60;;;1.67;;
82242;SDS011;71844;51.528;4.442;2024-02-26T04:17:48;3.90;;;1.95;;
82242;SDS011;71844;51.528;4.442;2024-02-26T04:20:15;5.47;;;2.28;;
82242;SDS011;71844;51.528;4.442;2024-02-26T04:22:43;4.00;;;2.70;;
82242;SDS011;71844;51.528;4.442;2024-02-26T04:25:11;2.85;;;1.75;;
82242;SDS011;71844;51.528;4.442;2024-02-26T04:27:38;3.75;;;2.25;;
82242;SDS011;71844;51.528;4.442;2024-02-26T04:30:07;3.47;;;2.25;;
82242;SDS011;71844;51.528;4.442;2024-02-26T04:32:37;4.47;;;2.25;;
82242;SDS011;71844;51.528;4.442;2024-02-26T04:35:04;5.35;;;2.35;;
82242;SDS011;71844;51.528;4.442;2024-02-26T04:37:31;3.92;;;1.90;;
82242;SDS011;71844;51.528;4.442;2024-02-26T04:39:59;5.43;;;2.15;;
82242;SDS011;71844;51.528;4.442;2024-02-26T04:42:26;4.30;;;1.85;;
82242;SDS011;71844;51.528;4.442;2024-02-26T04:44:54;4.35;;;2.60;;
82242;SDS011;71844;51.528;4.442;2024-02-26T04:47:21;3.30;;;1.92;;
82242;SDS011;71844;51.528;4.442;2024-02-26T04:49:49;3.95;;;1.90;;
82242;SDS011;71844;51.528;4.442;2024-02-26T04:52:16;4.20;;;2.10;;
82242;SDS011;71844;51.528;4.442;2024-02-26T04:54:43;3.33;;;1.50;;
82242;SDS011;71844;51.528;4.442;2024-02-26T04:57:11;5.35;;;3.05;;
82242;SDS011;71844;51.528;4.442;2024-02-26T04:59:38;3.75;;;2.22;;
82242;SDS011;71844;51.528;4.442;2024-02-26T05:02:07;3.50;;;2.03;;
82242;SDS011;71844;51.528;4.442;2024-02-26T05:04:34;4.05;;;2.15;;
82242;SDS011;71844;51.528;4.442;2024-02-26T05:07:01;4.57;;;2.20;;
82242;SDS011;71844;51.528;4.442;2024-02-26T05:09:28;5.50;;;3.22;;
82242;SDS011;71844;51.528;4.442;2024-02-26T05:11:55;4.70;;;2.15;;
82242;SDS011;71844;51.528;4.442;2024-02-26T05:14:21;3.55;;;1.95;;
82242;SDS011;71844;51.528;4.442;2024-02-26T05:16:48;4.80;;;2.30;;
82242;SDS011;71844;51.528;4.442;2024-02-26T05:19:15;4.50;;;2.35;;
82242;SDS011;71844;51.528;4.442;2024-02-26T05:21:42;5.43;;;2.13;;
82242;SDS011;71844;51.528;4.442;2024-02-26T05:24:10;3.53;;;1.95;;
82242;SDS011;71844;51.528;4.442;2024-02-26T05:26:37;5.63;;;2.47;;
82242;SDS011;71844;51.528;4.442;2024-02-26T05:29:04;4.55;;;3.08;;
82242;SDS011;71844;51.528;4.442;2024-02-26T05:31:31;5.75;;;2.17;;
82242;SDS011;71844;51.528;4.442;2024-02-26T05:33:58;3.95;;;2.08;;
82242;SDS011;71844;51.528;4.442;2024-02-26T05:36:25;3.95;;;2.17;;
82242;SDS011;71844;51.528;4.442;2024-02-26T05:38:55;5.25;;;2.55;;
82242;SDS011;71844;51.528;4.442;2024-02-26T05:41:21;4.88;;;2.20;;
82242;SDS011;71844;51.528;4.442;2024-02-26T05:43:53;3.72;;;2.03;;
82242;SDS011;71844;51.528;4.442;2024-02-26T05:46:20;4.15;;;2.00;;
82242;SDS011;71844;51.528;4.442;2024-02-26T05:48:48;4.43;;;2.30;;
82242;SDS011;71844;51.528;4.442;2024-02-26T05:51:17;4.72;;;2.00;;
82242;SDS011;71844;51.528;4.442;2024-02-26T05:53:44;6.40;;;2.58;;
82242;SDS011;71844;51.528;4.442;2024-02-26T05:56:13;4.22;;;2.45;;
82242;SDS011;71844;51.528;4.442;2024-02-26T05:58:40;5.70;;;2.55;;
82242;SDS011;71844;51.528;4.442;2024-02-26T06:01:06;4.72;;;2.53;;
82242;SDS011;71844;51.528;4.442;2024-02-26T06:03:33;5.63;;;4.30;;
82242;SDS011;71844;51.528;4.442;2024-02-26T06:06:01;4.50;;;2.88;;
82242;SDS011;71844;51.528;4.442;2024-02-26T06:08:28;4.35;;;2.72;;
82242;SDS011;71844;51.528;4.442;2024-02-26T06:10:55;4.43;;;2.15;;
82242;SDS011;71844;51.528;4.442;2024-02-26T06:13:22;5.05;;;2.70;;
82242;SDS011;71844;51.528;4.442;2024-02-26T06:15:49;4.28;;;2.45;;
82242;SDS011;71844;51.528;4.442;2024-02-26T06:18:16;6.85;;;2.83;;
82242;SDS011;71844;51.528;4.442;2024-02-26T06:20:43;5.55;;;2.75;;
82242;SDS011;71844;51.528;4.442;2024-02-26T06:23:10;4.40;;;2.55;;
82242;SDS011;71844;51.528;4.442;2024-02-26T06:25:37;5.97;;;2.67;;
82242;SDS011;71844;51.528;4.442;2024-02-26T06:28:04;5.60;;;2.55;;
82242;SDS011;71844;51.528;4.442;2024-02-26T06:30:31;5.45;;;2.53;;
82242;SDS011;71844;51.528;4.442;2024-02-26T06:32:58;4.93;;;2.42;;
82242;SDS011;71844;51.528;4.442;2024-02-26T06:35:25;5.78;;;2.58;;
82242;SDS011;71844;51.528;4.442;2024-02-26T06:37:52;4.90;;;2.38;;
82242;SDS011;71844;51.528;4.442;2024-02-26T06:40:19;4.05;;;2.35;;
82242;SDS011;71844;51.528;4.442;2024-02-26T06:42:46;4.50;;;2.55;;
82242;SDS011;71844;51.528;4.442;2024-02-26T06:45:15;6.35;;;3.08;;
82242;SDS011;71844;51.528;4.442;2024-02-26T06:47:42;5.28;;;2.70;;
82242;SDS011;71844;51.528;4.442;2024-02-26T06:50:11;4.45;;;2.30;;
82242;SDS011;71844;51.528;4.442;2024-02-26T06:52:38;6.85;;;2.42;;
82242;SDS011;71844;51.528;4.442;2024-02-26T06:55:05;4.13;;;1.92;;
82242;SDS011;71844;51.528;4.442;2024-02-26T06:57:34;6.70;;;2.70;;
82242;SDS011;71844;51.528;4.442;2024-02-26T07:00:02;5.65;;;2.80;;
82242;SDS011;71844;51.528;4.442;2024-02-26T07:02:30;6.07;;;2.80;;
82242;SDS011;71844;51.528;4.442;2024-02-26T07:04:58;6.28;;;3.38;;
82242;SDS011;71844;51.528;4.442;2024-02-26T07:07:25;7.97;;;2.95;;
82242;SDS011;71844;51.528;4.442;2024-02-26T07:09:52;5.65;;;2.90;;
82242;SDS011;71844;51.528;4.442;2024-02-26T07:12:19;4.93;;;2.47;;
82242;SDS011;71844;51.528;4.442;2024-02-26T07:14:48;5.07;;;2.55;;
82242;SDS011;71844;51.528;4.442;2024-02-26T07:17:17;5.80;;;3.05;;
82242;SDS011;71844;51.528;4.442;2024-02-26T07:19:44;5.05;;;2.58;;
82242;SDS011;71844;51.528;4.442;2024-02-26T07:22:11;6.63;;;2.50;;
82242;SDS011;71844;51.528;4.442;2024-02-26T07:24:38;4.95;;;2.60;;
82242;SDS011;71844;51.528;4.442;2024-02-26T07:27:05;6.45;;;2.58;;
82242;SDS011;71844;51.528;4.442;2024-02-26T07:29:32;5.45;;;2.83;;
82242;SDS011;71844;51.528;4.442;2024-02-26T07:31:59;6.30;;;3.00;;
82242;SDS011;71844;51.528;4.442;2024-02-26T07:34:26;5.55;;;3.00;;
82242;SDS011;71844;51.528;4.442;2024-02-26T07:36:56;4.50;;;2.60;;
82242;SDS011;71844;51.528;4.442;2024-02-26T07:39:23;4.30;;;2.00;;
82242;SDS011;71844;51.528;4.442;2024-02-26T07:41:50;4.97;;;2.70;;
82242;SDS011;71844;51.528;4.442;2024-02-26T07:44:19;5.05;;;2.28;;
82242;SDS011;71844;51.528;4.442;2024-02-26T07:46:46;4.30;;;2.50;;
82242;SDS011;71844;51.528;4.442;2024-02-26T07:49:13;5.32;;;2.58;;
82242;SDS011;71844;51.528;4.442;2024-02-26T07:51:40;4.72;;;2.60;;
82242;SDS011;71844;51.528;4.442;2024-02-26T07:54:08;5.65;;;2.50;;
82242;SDS011;71844;51.528;4.442;2024-02-26T07:56:38;4.60;;;2.45;;
82242;SDS011;71844;51.528;4.442;2024-02-26T07:59:05;8.77;;;4.10;;
82242;SDS011;71844;51.528;4.442;2024-02-26T08:01:31;5.05;;;2.60;;
82242;SDS011;71844;51.528;4.442;2024-02-26T08:04:00;7.20;;;3.58;;
82242;SDS011;71844;51.528;4.442;2024-02-26T08:06:27;5.65;;;2.78;;
82242;SDS011;71844;51.528;4.442;2024-02-26T08:08:54;8.95;;;4.20;;
82242;SDS011;71844;51.528;4.442;2024-02-26T08:11:20;6.68;;;3.15;;
82242;SDS011;71844;51.528;4.442;2024-02-26T08:13:47;8.82;;;3.65;;
82242;SDS011;71844;51.528;4.442;2024-02-26T08:16:14;5.88;;;3.28;;
82242;SDS011;71844;51.528;4.442;2024-02-26T08:18:41;10.85;;;4.28;;
82242;SDS011;71844;51.528;4.442;2024-02-26T08:21:08;7.88;;;4.03;;
82242;SDS011;71844;51.528;4.442;2024-02-26T08:23:35;8.52;;;4.03;;
82242;SDS011;71844;51.528;4.442;2024-02-26T08:26:02;7.20;;;3.13;;
82242;SDS011;71844;51.528;4.442;2024-02-26T08:28:33;12.77;;;4.35;;
82242;SDS011;71844;51.528;4.442;2024-02-26T08:31:00;8.07;;;3.40;;
82242;SDS011;71844;51.528;4.442;2024-02-26T08:33:27;8.35;;;3.97;;
82242;SDS011;71844;51.528;4.442;2024-02-26T08:35:54;8.93;;;4.10;;
82242;SDS011;71844;51.528;4.442;2024-02-26T08:38:21;6.68;;;3.50;;
82242;SDS011;71844;51.528;4.442;2024-02-26T08:40:48;9.57;;;4.57;;
82242;SDS011;71844;51.528;4.442;2024-02-26T08:43:15;8.23;;;4.40;;
82242;SDS011;71844;51.528;4.442;2024-02-26T08:45:42;9.20;;;4.07;;
82242;SDS011;71844;51.528;4.442;2024-02-26T08:48:09;8.93;;;4.43;;
82242;SDS011;71844;51.528;4.442;2024-02-26T08:50:36;10.18;;;5.00;;
82242;SDS011;71844;51.528;4.442;2024-02-26T08:53:03;10.20;;;4.40;;
82242;SDS011;71844;51.528;4.442;2024-02-26T08:55:33;9.85;;;4.25;;
82242;SDS011;71844;51.528;4.442;2024-02-26T08:58:00;8.35;;;4.22;;
82242;SDS011;71844;51.528;4.442;2024-02-26T09:00:26;10.57;;;4.47;;
82242;SDS011;71844;51.528;4.442;2024-02-26T09:02:53;11.07;;;5.05;;
82242;SDS011;71844;51.528;4.442;2024-02-26T09:05:21;11.50;;;4.70;;
82242;SDS011;71844;51.528;4.442;2024-02-26T09:07:48;9.23;;;4.68;;
82242;SDS011;71844;51.528;4.442;2024-02-26T09:10:15;12.43;;;5.07;;
82242;SDS011;71844;51.528;4.442;2024-02-26T09:12:42;13.75;;;5.78;;
82242;SDS011;71844;51.528;4.442;2024-02-26T09:15:09;10.05;;;4.88;;
82242;SDS011;71844;51.528;4.442;2024-02-26T09:17:36;10.27;;;4.53;;
82242;SDS011;71844;51.528;4.442;2024-02-26T09:20:03;10.95;;;5.00;;
82242;SDS011;71844;51.528;4.442;2024-02-26T09:22:32;10.90;;;4.82;;
82242;SDS011;71844;51.528;4.442;2024-02-26T09:24:59;12.40;;;5.45;;
82242;SDS011;71844;51.528;4.442;2024-02-26T09:27:26;10.77;;;4.82;;
82242;SDS011;71844;51.528;4.442;2024-02-26T09:29:53;14.48;;;5.93;;
82242;SDS011;71844;51.528;4.442;2024-02-26T09:32:20;17.77;;;7.13;;
82242;SDS011;71844;51.528;4.442;2024-02-26T09:34:47;17.95;;;6.88;;
82242;SDS011;71844;51.528;4.442;2024-02-26T09:37:13;17.52;;;7.38;;
82242;SDS011;71844;51.528;4.442;2024-02-26T09:39:47;15.88;;;6.78;;
82242;SDS011;71844;51.528;4.442;2024-02-26T09:42:14;15.70;;;6.68;;
82242;SDS011;71844;51.528;4.442;2024-02-26T09:44:45;13.63;;;5.95;;
82242;SDS011;71844;51.528;4.442;2024-02-26T09:47:14;16.25;;;6.82;;
82242;SDS011;71844;51.528;4.442;2024-02-26T09:49:43;19.08;;;8.02;;
82242;SDS011;71844;51.528;4.442;2024-02-26T09:52:12;17.92;;;8.07;;
82242;SDS011;71844;51.528;4.442;2024-02-26T09:54:42;19.27;;;7.65;;
82242;SDS011;71844;51.528;4.442;2024-02-26T09:57:13;17.77;;;7.15;;
82242;SDS011;71844;51.528;4.442;2024-02-26T09:59:43;16.38;;;6.85;;
82242;SDS011;71844;51.528;4.442;2024-02-26T10:02:12;17.35;;;9.60;;
82242;SDS011;71844;51.528;4.442;2024-02-26T10:04:41;18.50;;;7.68;;
82242;SDS011;71844;51.528;4.442;2024-02-26T10:07:15;17.73;;;7.70;;
82242;SDS011;71844;51.528;4.442;2024-02-26T10:09:42;17.65;;;7.80;;
82242;SDS011;71844;51.528;4.442;2024-02-26T10:12:10;15.35;;;7.10;;
82242;SDS011;71844;51.528;4.442;2024-02-26T10:14:38;14.27;;;6.38;;
82242;SDS011;71844;51.528;4.442;2024-02-26T10:17:08;13.30;;;6.45;;
82242;SDS011;71844;51.528;4.442;2024-02-26T10:19:35;14.13;;;6.32;;
82242;SDS011;71844;51.528;4.442;2024-02-26T10:22:05;12.57;;;5.93;;
82242;SDS011;71844;51.528;4.442;2024-02-26T10:24:32;13.27;;;6.20;;
82242;SDS011;71844;51.528;4.442;2024-02-26T10:27:01;11.23;;;5.72;;
82242;SDS011;71844;51.528;4.442;2024-02-26T10:29:29;12.32;;;6.25;;
82242;SDS011;71844;51.528;4.442;2024-02-26T10:31:55;12.63;;;5.50;;
82242;SDS011;71844;51.528;4.442;2024-02-26T10:34:22;12.95;;;6.35;;
82242;SDS011;71844;51.528;4.442;2024-02-26T10:36:50;11.27;;;5.65;;
82242;SDS011;71844;51.528;4.442;2024-02-26T10:39:19;12.05;;;5.70;;
82242;SDS011;71844;51.528;4.442;2024-02-26T10:41:48;14.32;;;6.20;;
82242;SDS011;71844;51.528;4.442;2024-02-26T10:44:15;12.75;;;5.20;;
82242;SDS011;71844;51.528;4.442;2024-02-26T10:46:46;13.07;;;5.82;;
82242;SDS011;71844;51.528;4.442;2024-02-26T10:49:16;11.55;;;5.10;;
82242;SDS011;71844;51.528;4.442;2024-02-26T10:51:49;10.43;;;4.97;;
82242;SDS011;71844;51.528;4.442;2024-02-26T10:56:53;12.70;;;5.40;;
82242;SDS011;71844;51.528;4.442;2024-02-26T10:59:22;10.23;;;4.95;;
82242;SDS011;71844;51.528;4.442;2024-02-26T11:01:49;9.77;;;4.40;;
82242;SDS011;71844;51.528;4.442;2024-02-26T11:04:17;9.43;;;4.70;;
82242;SDS011;71844;51.528;4.442;2024-02-26T11:06:45;10.23;;;5.15;;
82242;SDS011;71844;51.528;4.442;2024-02-26T11:09:15;8.68;;;4.50;;
82242;SDS011;71844;51.528;4.442;2024-02-26T11:11:43;8.70;;;4.28;;
82242;SDS011;71844;51.528;4.442;2024-02-26T11:14:11;9.00;;;4.55;;
82242;SDS011;71844;51.528;4.442;2024-02-26T11:16:39;8.25;;;3.63;;
82242;SDS011;71844;51.528;4.442;2024-02-26T11:19:09;9.00;;;4.35;;
82242;SDS011;71844;51.528;4.442;2024-02-26T11:21:37;10.02;;;4.70;;
82242;SDS011;71844;51.528;4.442;2024-02-26T11:24:09;8.90;;;4.45;;
82242;SDS011;71844;51.528;4.442;2024-02-26T11:26:45;8.05;;;3.70;;
82242;SDS011;71844;51.528;4.442;2024-02-26T11:29:17;8.23;;;3.97;;
82242;SDS011;71844;51.528;4.442;2024-02-26T11:31:48;9.13;;;3.72;;
82242;SDS011;71844;51.528;4.442;2024-02-26T11:34:17;8.30;;;4.63;;
82242;SDS011;71844;51.528;4.442;2024-02-26T11:36:45;7.30;;;4.00;;
82242;SDS011;71844;51.528;4.442;2024-02-26T11:39:12;6.93;;;3.63;;
82242;SDS011;71844;51.528;4.442;2024-02-26T11:41:43;8.65;;;3.80;;
82242;SDS011;71844;51.528;4.442;2024-02-26T11:44:10;9.50;;;3.70;;
82242;SDS011;71844;51.528;4.442;2024-02-26T11:46:40;7.65;;;3.97;;
82242;SDS011;71844;51.528;4.442;2024-02-26T11:51:55;6.53;;;3.50;;
82242;SDS011;71844;51.528;4.442;2024-02-26T11:57:28;6.35;;;3.15;;
82242;SDS011;71844;51.528;4.442;2024-02-26T12:03:13;8.35;;;3.55;;
82242;SDS011;71844;51.528;4.442;2024-02-26T12:05:40;5.80;;;3.00;;
82242;SDS011;71844;51.528;4.442;2024-02-26T12:08:08;6.10;;;2.70;;
82242;SDS011;71844;51.528;4.442;2024-02-26T12:10:36;8.85;;;3.83;;
82242;SDS011;71844;51.528;4.442;2024-02-26T12:13:07;7.82;;;3.75;;
82242;SDS011;71844;51.528;4.442;2024-02-26T12:15:45;7.28;;;3.42;;
82242;SDS011;71844;51.528;4.442;2024-02-26T12:18:24;6.97;;;3.40;;
82242;SDS011;71844;51.528;4.442;2024-02-26T12:21:01;7.20;;;3.80;;
82242;SDS011;71844;51.528;4.442;2024-02-26T12:23:30;9.27;;;4.05;;
82242;SDS011;71844;51.528;4.442;2024-02-26T12:25:58;7.57;;;4.28;;
82242;SDS011;71844;51.528;4.442;2024-02-26T12:28:29;8.60;;;4.20;;
82242;SDS011;71844;51.528;4.442;2024-02-26T12:30:56;6.63;;;3.78;;
82242;SDS011;71844;51.528;4.442;2024-02-26T12:33:26;7.60;;;3.55;;
82242;SDS011;71844;51.528;4.442;2024-02-26T12:35:55;6.68;;;3.42;;
82242;SDS011;71844;51.528;4.442;2024-02-26T12:38:23;7.25;;;3.67;;
82242;SDS011;71844;51.528;4.442;2024-02-26T12:40:50;7.10;;;3.53;;
82242;SDS011;71844;51.528;4.442;2024-02-26T12:43:17;7.10;;;3.42;;
82242;SDS011;71844;51.528;4.442;2024-02-26T12:45:44;9.90;;;4.85;;
82242;SDS011;71844;51.528;4.442;2024-02-26T12:48:14;7.05;;;3.30;;
82242;SDS011;71844;51.528;4.442;2024-02-26T12:50:44;8.25;;;4.20;;
82242;SDS011;71844;51.528;4.442;2024-02-26T12:53:14;6.25;;;3.53;;
82242;SDS011;71844;51.528;4.442;2024-02-26T12:55:42;9.05;;;4.20;;
82242;SDS011;71844;51.528;4.442;2024-02-26T12:58:09;9.30;;;3.78;;
82242;SDS011;71844;51.528;4.442;2024-02-26T13:00:37;8.10;;;4.32;;
82242;SDS011;71844;51.528;4.442;2024-02-26T13:03:05;8.60;;;3.97;;
82242;SDS011;71844;51.528;4.442;2024-02-26T13:05:32;8.13;;;4.07;;
82242;SDS011;71844;51.528;4.442;2024-02-26T13:08:00;6.13;;;3.60;;
82242;SDS011;71844;51.528;4.442;2024-02-26T13:10:31;8.70;;;4.50;;
82242;SDS011;71844;51.528;4.442;2024-02-26T13:12:58;10.40;;;5.30;;
82242;SDS011;71844;51.528;4.442;2024-02-26T13:15:28;9.75;;;4.65;;
82242;SDS011;71844;51.528;4.442;2024-02-26T13:17:55;7.55;;;3.72;;
82242;SDS011;71844;51.528;4.442;2024-02-26T13:20:26;7.72;;;3.83;;
82242;SDS011;71844;51.528;4.442;2024-02-26T13:23:03;7.45;;;4.63;;
82242;SDS011;71844;51.528;4.442;2024-02-26T13:25:35;6.38;;;3.45;;
82242;SDS011;71844;51.528;4.442;2024-02-26T13:28:17;6.90;;;3.88;;
82242;SDS011;71844;51.528;4.442;2024-02-26T13:30:52;7.22;;;3.47;;
82242;SDS011;71844;51.528;4.442;2024-02-26T13:33:52;9.27;;;4.55;;
82242;SDS011;71844;51.528;4.442;2024-02-26T13:36:22;7.78;;;4.22;;
82242;SDS011;71844;51.528;4.442;2024-02-26T13:39:08;9.63;;;4.60;;
82242;SDS011;71844;51.528;4.442;2024-02-26T13:41:39;8.32;;;4.60;;
82242;SDS011;71844;51.528;4.442;2024-02-26T13:44:07;9.20;;;4.40;;
82242;SDS011;71844;51.528;4.442;2024-02-26T13:46:34;8.75;;;4.47;;
82242;SDS011;71844;51.528;4.442;2024-02-26T13:49:01;7.72;;;3.75;;
82242;SDS011;71844;51.528;4.442;2024-02-26T13:51:29;7.63;;;4.10;;
82242;SDS011;71844;51.528;4.442;2024-02-26T13:54:02;7.25;;;3.55;;
82242;SDS011;71844;51.528;4.442;2024-02-26T13:56:30;9.00;;;4.80;;
82242;SDS011;71844;51.528;4.442;2024-02-26T13:58:58;7.32;;;4.05;;
82242;SDS011;71844;51.528;4.442;2024-02-26T14:01:25;7.20;;;3.80;;
82242;SDS011;71844;51.528;4.442;2024-02-26T14:03:52;6.43;;;3.35;;
82242;SDS011;71844;51.528;4.442;2024-02-26T14:06:21;6.60;;;3.53;;
82242;SDS011;71844;51.528;4.442;2024-02-26T14:08:48;9.20;;;4.65;;
82242;SDS011;71844;51.528;4.442;2024-02-26T14:11:15;7.68;;;3.72;;
82242;SDS011;71844;51.528;4.442;2024-02-26T14:13:42;7.10;;;3.38;;
82242;SDS011;71844;51.528;4.442;2024-02-26T14:16:13;9.05;;;4.43;;
82242;SDS011;71844;51.528;4.442;2024-02-26T14:19:08;7.57;;;3.95;;
82242;SDS011;71844;51.528;4.442;2024-02-26T14:21:38;7.10;;;3.92;;
82242;SDS011;71844;51.528;4.442;2024-02-26T14:24:05;6.93;;;3.22;;
82242;SDS011;71844;51.528;4.442;2024-02-26T14:26:32;6.75;;;3.15;;
82242;SDS011;71844;51.528;4.442;2024-02-26T14:29:03;6.03;;;3.20;;
82242;SDS011;71844;51.528;4.442;2024-02-26T14:31:30;9.15;;;4.35;;
82242;SDS011;71844;51.528;4.442;2024-02-26T14:33:56;9.88;;;4.68;;
82242;SDS011;71844;51.528;4.442;2024-02-26T14:36:26;7.72;;;3.90;;
82242;SDS011;71844;51.528;4.442;2024-02-26T14:38:55;7.65;;;3.78;;
82242;SDS011;71844;51.528;4.442;2024-02-26T14:41:23;8.75;;;3.83;;
82242;SDS011;71844;51.528;4.442;2024-02-26T14:43:50;7.90;;;3.80;;
82242;SDS011;71844;51.528;4.442;2024-02-26T14:46:17;6.93;;;3.40;;
82242;SDS011;71844;51.528;4.442;2024-02-26T14:48:47;8.70;;;4.18;;
82242;SDS011;71844;51.528;4.442;2024-02-26T14:51:14;7.10;;;4.00;;
82242;SDS011;71844;51.528;4.442;2024-02-26T14:53:41;8.68;;;4.65;;
82242;SDS011;71844;51.528;4.442;2024-02-26T14:56:15;6.72;;;3.45;;
82242;SDS011;71844;51.528;4.442;2024-02-26T14:58:42;8.45;;;4.18;;
82242;SDS011;71844;51.528;4.442;2024-02-26T15:01:09;5.75;;;3.25;;
82242;SDS011;71844;51.528;4.442;2024-02-26T15:03:36;7.30;;;3.17;;
82242;SDS011;71844;51.528;4.442;2024-02-26T15:06:04;6.55;;;3.63;;
82242;SDS011;71844;51.528;4.442;2024-02-26T15:08:31;8.13;;;3.83;;
82242;SDS011;71844;51.528;4.442;2024-02-26T15:13:43;8.98;;;3.53;;